logo
Search for airport 
image banner adimage banner adimage banner ad
image banner ad

MRLI - La Ligia

Located in Parrita, Costa Rica

ICAO - MRLI, IATA -

Data provided by Airmate  

General information

Coordinates: N9°30'32" W84°19'60"
Elevation is 16 feet MSL.
 
View others Airports in Puntarenas

Operational data

Special qualification required
Current time UTC:
Current local time:
Weather at : MRPV - Tobias Bolanos Intl ( 54 km )
METAR: MRPV 180000Z 28001KT 9999 FEW020 BKN100 22/21 A3003 NOSIG
TAF: TAF MRPV 172300Z 1800/1824 11008KT 9999 SCT020 BKN120 TX30/1818Z TN20/1810Z TEMPO 1800/1806 29005KT BCFG BKN015 TEMPO 1818/1824 29006KT BKN015
View NOTAMs / SUP AIP / TFR affecting this airport [VIEW]
Communications frequencies: [VIEW]

Runways:

RWY identifierQFULength (ft)Width (ft)SurfaceLDA (ft)
02318233UNK
20318233UNK

Airport contact information

Address: Parrita Costa Rica

Satellite view of MRLI